Honaker, Kentucky
Current Conditions -  °F | °C
As of 7:35 PM on Sunday 21 Dec 2014 (Local Time) from KPBX Reporting Station
Clear Clear  
Wind Chill: 31°   Ceiling: Unl
Heat Index: 37°   Visibility: 10mi
Dew Point: 27°   Wind: 8mph
Humidity: 68%   Direction: 20°NNE
Pressure: 30.12"   Gusts: NA
Location:  37.5777°N, 82.6966°W
Report Text: KPBX 220035Z AUTO 02007KT 10SM CLR 03/M03 A3012 RMK AO2 T00271026
Loading
Personal Weather Stations






























Interactive Weather Map New forecast layout! Learn more

10-Day Weather Forecast

Advertisements
Track Severe Weather on mobile